Roza A — TCRB7 — position and weather

sailwx.info

Track history (hours):
 
Tides and Currents Weather Stations Pressure Air Temp Water Temp Dewpoint Dewpoint Depression Visibility Wind Speed Wind Dir Waves Ship Positions

Roza A

Last reported at 2014-Oct-22 20:18 UTC. Time now 2014-Oct-23 00:51 UTC.
Position N 39°34' W 000°06'.

Length 169 m; draft 6.7 m.

Type: Ship (hazmat cat A). MMSI: 271001057.

Date/timePositionNaut miles runAvg speedWind from/ knotsBaromVisibWave heightAir tempDewpointWater temp
2014-Oct-22 20:18N 39°34' W 000°06'1114.8
2014-Oct-22 19:33N 39°26' W 000°15'3 2.9
2014-Oct-22 18:30N 39°27' W 000°19'0 0.0
2014-Oct-22 17:33N 39°27' W 000°19'0 0.0
2014-Oct-22 16:33N 39°27' W 000°19'0 0.0
2014-Oct-22 15:33N 39°27' W 000°19'0 0.0
2014-Oct-22 14:33N 39°27' W 000°19'0 0.0
2014-Oct-22 13:33N 39°27' W 000°19'0 0.0
2014-Oct-22 12:33N 39°27' W 000°19'0 0.0
2014-Oct-22 11:33N 39°27' W 000°19'0 0.0
2014-Oct-22 10:33N 39°27' W 000°19'0 0.0
2014-Oct-22 09:33N 39°27' W 000°19'0 0.0
2014-Oct-22 08:33N 39°27' W 000°19'0 0.0
2014-Oct-22 07:33N 39°27' W 000°19'0 0.0
2014-Oct-22 06:33N 39°27' W 000°19'0 0.0
2014-Oct-22 05:33N 39°27' W 000°19'0 0.0
2014-Oct-22 04:33N 39°27' W 000°19'5 5.0
2014-Oct-22 03:33N 39°24' W 000°13'6 5.9
2014-Oct-22 02:31N 39°24' W 000°05'1110.9
2014-Oct-22 01:30N 39°22' E 000°09'7810.9
2014-Oct-21 18:23N 39°12' E 001°48'910.8
2014-Oct-21 17:33N 39°11' E 001°60'1610.9
2014-Oct-21 16:06N 39°08' E 002°20'910.7
2014-Oct-21 15:16N 39°07' E 002°31'810.6
2014-Oct-21 14:33N 39°05' E 002°41'1010.4
2014-Oct-21 13:33N 39°04' E 002°54'1110.4
2014-Oct-21 12:29N 39°04' E 003°08'2814.3
2014-Oct-21 10:33N 39°02' E 003°44'1514.5
2014-Oct-21 09:32N 39°01' E 004°03'3215.1
2014-Oct-21 07:25N 39°00' E 004°44'1314.0
2014-Oct-21 06:31N 38°60' E 005°00'3514.7
2014-Oct-21 04:08N 38°56' E 005°45'12115.2
2014-Oct-20 20:12N 38°46' E 008°19'1014.9
2014-Oct-20 19:33N 38°46' E 008°32'1514.8
2014-Oct-20 18:33N 38°47' E 008°51'1514.7
2014-Oct-20 17:33N 38°57' E 009°04'1313.2
2014-Oct-20 16:34N 39°10' E 009°07'4 3.6
2014-Oct-20 15:33N 39°13' E 009°04'0 0.0
2014-Oct-20 14:33N 39°13' E 009°04'0 0.0
2014-Oct-20 13:33N 39°13' E 009°04'0 0.0
2014-Oct-20 12:33N 39°13' E 009°04'0 0.0
2014-Oct-20 11:33N 39°13' E 009°04'0 0.0
2014-Oct-20 10:33N 39°13' E 009°04'0 0.0
2014-Oct-20 09:33N 39°13' E 009°04'0 0.0
2014-Oct-20 08:33N 39°13' E 009°04'0 0.0
2014-Oct-20 07:33N 39°13' E 009°04'0 0.0
2014-Oct-20 06:33N 39°13' E 009°04'0 0.0
2014-Oct-20 05:33N 39°13' E 009°04'0 0.0
2014-Oct-20 04:33N 39°13' E 009°04'0 0.0
2014-Oct-20 03:33N 39°13' E 009°04'5 5.2
2014-Oct-20 02:33N 39°09' E 009°07'9 8.7
2014-Oct-20 01:33N 39°03' E 009°15'1111.2
2014-Oct-20 00:33N 38°57' E 009°27'22910.9
2014-Oct-19 03:33N 36°58' E 013°36'1110.6
2014-Oct-19 02:33N 36°54' E 013°48'1010.3
2014-Oct-19 01:33N 36°50' E 014°00'1010.2
2014-Oct-19 00:33N 36°46' E 014°12'1010.1
2014-Oct-18 23:33N 36°42' E 014°23'1010.1
2014-Oct-18 22:32N 36°38' E 014°35'1211.8
2014-Oct-18 21:30N 36°34' E 014°49'1414.5
2014-Oct-18 20:32N 36°30' E 015°06'35712.7
2014-Oct-17 16:32N 36°21' E 022°29'1110.0
2014-Oct-17 15:26N 36°23' E 022°43'9 9.6
2014-Oct-17 14:33N 36°25' E 022°53'9 9.1
2014-Oct-17 13:33N 36°25' E 023°04'9 9.3
2014-Oct-17 12:33N 36°27' E 023°16'1110.8
2014-Oct-17 11:33N 36°36' E 023°22'1110.8
2014-Oct-17 10:29N 36°46' E 023°29'1110.7
2014-Oct-17 09:27N 36°56' E 023°36'1011.4
2014-Oct-17 08:33N 37°04' E 023°43'1111.2
2014-Oct-17 07:33N 37°14' E 023°50'1110.8
2014-Oct-17 06:33N 37°23' E 023°57'1110.7
2014-Oct-17 05:33N 37°32' E 024°04'2110.5
2014-Oct-17 03:33N 37°48' E 024°23'1110.5
2014-Oct-17 02:34N 37°54' E 024°33'1510.3
2014-Oct-17 01:04N 38°06' E 024°46'610.7
2014-Oct-17 00:32N 38°09' E 024°52'1010.7
2014-Oct-16 23:33N 38°14' E 025°04'1110.6
2014-Oct-16 22:33N 38°19' E 025°15'1110.7
2014-Oct-16 21:33N 38°25' E 025°27'1110.8
2014-Oct-16 20:33N 38°31' E 025°38'11 9.8
2014-Oct-16 19:27N 38°37' E 025°50'26 0.8
2014-Oct-15 11:33N 39°03' E 025°57'23 9.5
2014-Oct-15 09:07N 39°25' E 025°47'610.9
2014-Oct-15 08:33N 39°31' E 025°47'1511.1
2014-Oct-15 07:14N 39°46' E 025°47'811.3
2014-Oct-15 06:31N 39°53' E 025°50'5711.2
2014-Oct-15 01:24N 40°28' E 026°50'2410.8
2014-Oct-14 23:11N 40°37' E 027°19'  
Track history (hours):
 
Tides and Currents Weather Stations Pressure Air Temp Water Temp Dewpoint Dewpoint Depression Visibility Wind Speed Wind Dir Waves Ship Positions

Roza A

Last reported at 2014-Oct-22 20:18 UTC. Time now 2014-Oct-23 00:51 UTC.
Position N 39°34' W 000°06'.

Length 169 m; draft 6.7 m.

Type: Ship (hazmat cat A). MMSI: 271001057.

Date/timePositionNaut miles runAvg speedWind from/ knotsBaromVisibWave heightAir tempDewpointWater temp
2014-Oct-22 20:18N 39°34' W 000°06'1114.8
2014-Oct-22 19:33N 39°26' W 000°15'3 2.9
2014-Oct-22 18:30N 39°27' W 000°19'0 0.0
2014-Oct-22 17:33N 39°27' W 000°19'0 0.0
2014-Oct-22 16:33N 39°27' W 000°19'0 0.0
2014-Oct-22 15:33N 39°27' W 000°19'0 0.0
2014-Oct-22 14:33N 39°27' W 000°19'0 0.0
2014-Oct-22 13:33N 39°27' W 000°19'0 0.0
2014-Oct-22 12:33N 39°27' W 000°19'0 0.0
2014-Oct-22 11:33N 39°27' W 000°19'0 0.0
2014-Oct-22 10:33N 39°27' W 000°19'0 0.0
2014-Oct-22 09:33N 39°27' W 000°19'0 0.0
2014-Oct-22 08:33N 39°27' W 000°19'0 0.0
2014-Oct-22 07:33N 39°27' W 000°19'0 0.0
2014-Oct-22 06:33N 39°27' W 000°19'0 0.0
2014-Oct-22 05:33N 39°27' W 000°19'0 0.0
2014-Oct-22 04:33N 39°27' W 000°19'5 5.0
2014-Oct-22 03:33N 39°24' W 000°13'6 5.9
2014-Oct-22 02:31N 39°24' W 000°05'1110.9
2014-Oct-22 01:30N 39°22' E 000°09'7810.9
2014-Oct-21 18:23N 39°12' E 001°48'910.8
2014-Oct-21 17:33N 39°11' E 001°60'1610.9
2014-Oct-21 16:06N 39°08' E 002°20'910.7
2014-Oct-21 15:16N 39°07' E 002°31'810.6
2014-Oct-21 14:33N 39°05' E 002°41'1010.4
2014-Oct-21 13:33N 39°04' E 002°54'1110.4
2014-Oct-21 12:29N 39°04' E 003°08'2814.3
2014-Oct-21 10:33N 39°02' E 003°44'1514.5
2014-Oct-21 09:32N 39°01' E 004°03'3215.1
2014-Oct-21 07:25N 39°00' E 004°44'1314.0
2014-Oct-21 06:31N 38°60' E 005°00'3514.7
2014-Oct-21 04:08N 38°56' E 005°45'12115.2
2014-Oct-20 20:12N 38°46' E 008°19'1014.9
2014-Oct-20 19:33N 38°46' E 008°32'1514.8
2014-Oct-20 18:33N 38°47' E 008°51'1514.7
2014-Oct-20 17:33N 38°57' E 009°04'1313.2
2014-Oct-20 16:34N 39°10' E 009°07'4 3.6
2014-Oct-20 15:33N 39°13' E 009°04'0 0.0
2014-Oct-20 14:33N 39°13' E 009°04'0 0.0
2014-Oct-20 13:33N 39°13' E 009°04'0 0.0
2014-Oct-20 12:33N 39°13' E 009°04'0 0.0
2014-Oct-20 11:33N 39°13' E 009°04'0 0.0
2014-Oct-20 10:33N 39°13' E 009°04'0 0.0
2014-Oct-20 09:33N 39°13' E 009°04'0 0.0
2014-Oct-20 08:33N 39°13' E 009°04'0 0.0
2014-Oct-20 07:33N 39°13' E 009°04'0 0.0
2014-Oct-20 06:33N 39°13' E 009°04'0 0.0
2014-Oct-20 05:33N 39°13' E 009°04'0 0.0
2014-Oct-20 04:33N 39°13' E 009°04'0 0.0
2014-Oct-20 03:33N 39°13' E 009°04'5 5.2
2014-Oct-20 02:33N 39°09' E 009°07'9 8.7
2014-Oct-20 01:33N 39°03' E 009°15'1111.2
2014-Oct-20 00:33N 38°57' E 009°27'22910.9
2014-Oct-19 03:33N 36°58' E 013°36'1110.6
2014-Oct-19 02:33N 36°54' E 013°48'1010.3
2014-Oct-19 01:33N 36°50' E 014°00'1010.2
2014-Oct-19 00:33N 36°46' E 014°12'1010.1
2014-Oct-18 23:33N 36°42' E 014°23'1010.1
2014-Oct-18 22:32N 36°38' E 014°35'1211.8
2014-Oct-18 21:30N 36°34' E 014°49'1414.5
2014-Oct-18 20:32N 36°30' E 015°06'35712.7
2014-Oct-17 16:32N 36°21' E 022°29'1110.0
2014-Oct-17 15:26N 36°23' E 022°43'9 9.6
2014-Oct-17 14:33N 36°25' E 022°53'9 9.1
2014-Oct-17 13:33N 36°25' E 023°04'9 9.3
2014-Oct-17 12:33N 36°27' E 023°16'1110.8
2014-Oct-17 11:33N 36°36' E 023°22'1110.8
2014-Oct-17 10:29N 36°46' E 023°29'1110.7
2014-Oct-17 09:27N 36°56' E 023°36'1011.4
2014-Oct-17 08:33N 37°04' E 023°43'1111.2
2014-Oct-17 07:33N 37°14' E 023°50'1110.8
2014-Oct-17 06:33N 37°23' E 023°57'1110.7
2014-Oct-17 05:33N 37°32' E 024°04'2110.5
2014-Oct-17 03:33N 37°48' E 024°23'1110.5
2014-Oct-17 02:34N 37°54' E 024°33'1510.3
2014-Oct-17 01:04N 38°06' E 024°46'610.7
2014-Oct-17 00:32N 38°09' E 024°52'1010.7
2014-Oct-16 23:33N 38°14' E 025°04'1110.6
2014-Oct-16 22:33N 38°19' E 025°15'1110.7
2014-Oct-16 21:33N 38°25' E 025°27'1110.8
2014-Oct-16 20:33N 38°31' E 025°38'11 9.8
2014-Oct-16 19:27N 38°37' E 025°50'26 0.8
2014-Oct-15 11:33N 39°03' E 025°57'23 9.5
2014-Oct-15 09:07N 39°25' E 025°47'610.9
2014-Oct-15 08:33N 39°31' E 025°47'1511.1
2014-Oct-15 07:14N 39°46' E 025°47'811.3
2014-Oct-15 06:31N 39°53' E 025°50'5711.2
2014-Oct-15 01:24N 40°28' E 026°50'2410.8
2014-Oct-14 23:11N 40°37' E 027°19'  

Dump ship's entire track history